Latest Weather Observations for Casey*

IDT60801

Issued at 2:02 am EDT Wednesday 18 October 2017 (issued every 30 minutes, with the page automatically refreshed every 10 minutes)

About weather observations | Map of weather stations | Latest weather observations for ANT | Other Formats
Station Details ID: 300017 Name: CASEY Lat: -66.28 Lon: 110.52 Height: 40.0 m
Data from the previous 72 hours. | See also: Recent months at Casey*
Date/Time
EDT
Temp
°C
App
Temp
°C
Dew
Point
°C
Rel
Hum
%
Delta-T
°C
Wind Press
QNH
hPa
Press
MSL
hPa
Rain since
9am
mm
Dir  Spd
km/h
Gust
km/h
Spd
kts
Gust
kts
18/02:00am -2.3 -16.2 -6.1 75 - ENE 59 70 32 38 973.0 973.4 -
18/01:30am -1.9 -14.9 -6.1 73 - ENE 54 69 29 37 972.9 - -
18/01:00am -1.6 -15.8 -5.4 75 - ENE 61 74 33 40 972.6 - -
18/12:30am -1.8 -15.4 -6.2 72 - ENE 57 70 31 38 972.6 - -
18/12:00am -1.8 -14.8 -6.3 71 - ENE 54 65 29 35 972.4 - -
 
Date/Time
EDT
Temp
°C
App
Temp
°C
Dew
Point
°C
Rel
Hum
%
Delta-T
°C
Wind Press
QNH
hPa
Press
MSL
hPa
Rain since
9am
mm
Dir  Spd
km/h
Gust
km/h
Spd
kts
Gust
kts
17/11:30pm -1.8 -15.3 -6.0 73 - ENE 57 67 31 36 972.2 - -
17/11:00pm -2.0 -14.9 -5.1 79 - ENE 54 65 29 35 972.0 972.4 -
17/10:30pm -1.8 -15.3 -5.3 77 - NE 57 69 31 37 971.7 - -
17/10:00pm -1.9 -17.4 -6.3 72 - ENE 67 76 36 41 971.2 - -
17/09:30pm -1.7 -16.4 -6.2 71 - ENE 63 74 34 40 970.9 - -
17/09:00pm -2.0 -17.4 -6.0 74 - ENE 67 78 36 42 970.6 - -
17/08:30pm -2.1 -17.5 -5.9 75 - ENE 67 83 36 45 970.2 - -
17/08:25pm -2.0 -17.0 -5.8 75 - ENE 65 83 35 45 970.2 - -
17/08:24pm -2.0 -17.0 -5.8 75 - ENE 65 83 35 45 970.2 - -
17/08:00pm -2.3 -17.4 -6.8 71 - ENE 65 78 35 42 970.1 970.5 -
17/07:30pm -2.7 -18.3 -7.2 71 - ENE 67 76 36 41 970.1 - -
17/07:07pm -2.8 -18.9 -6.9 73 - ENE 70 89 38 48 969.7 - -
17/07:00pm -2.6 -19.1 -6.8 73 - ENE 72 85 39 46 969.4 - -
17/06:43pm -2.9 -19.4 -6.9 74 - ENE 72 91 39 49 969.3 - -
17/06:30pm -2.9 -20.1 -6.4 77 - ENE 76 93 41 50 968.6 - -
17/06:00pm -2.7 -19.9 -6.5 75 - ENE 76 95 41 51 968.8 - -
17/05:30pm -2.7 -21.2 -6.7 74 - ENE 83 106 45 57 967.8 - -
17/05:10pm -2.9 -22.6 -6.7 75 - ENE 89 109 48 59 967.2 - -
17/05:09pm -2.9 -22.6 -6.7 75 - ENE 89 109 48 59 967.2 - -
17/05:00pm -3.0 -23.4 -6.6 76 - ENE 93 109 50 59 966.9 967.3 -
17/04:38pm -3.0 -23.0 -5.8 81 - ENE 91 109 49 59 966.7 - -
17/04:30pm -3.2 -24.0 -6.0 81 - ENE 95 113 51 61 966.8 - -
17/04:13pm -3.1 -24.4 -6.2 79 - ENE 98 117 53 63 966.1 - -
17/04:12pm -3.1 -24.4 -6.2 79 - ENE 98 117 53 63 966.1 - -
17/04:00pm -3.3 -25.8 -6.4 79 - ENE 104 119 56 64 965.8 - -
17/03:45pm -3.5 -26.4 -6.4 80 - ENE 106 124 57 67 965.6 - -
17/03:44pm -3.5 -26.4 -6.4 80 - ENE 106 124 57 67 965.6 - -
17/03:30pm -3.3 -26.2 -6.2 80 - ENE 106 122 57 66 965.5 - -
17/03:02pm -3.5 -26.0 -6.4 80 - ENE 104 124 56 67 965.3 - -
17/03:01pm -3.5 -26.0 -6.4 80 - ENE 104 124 56 67 965.3 - -
17/03:00pm -3.5 -26.0 -6.3 81 - ENE 104 120 56 65 965.5 - -
17/02:42pm -3.2 -26.0 -5.8 82 - ENE 106 124 57 67 965.2 - -
17/02:41pm -3.2 -26.0 -5.8 82 - ENE 106 124 57 67 965.2 - -
17/02:30pm -3.5 -26.3 -5.6 85 - ENE 106 120 57 65 965.4 - -
17/02:08pm -3.7 -26.7 -5.7 86 - ENE 107 126 58 68 965.1 - -
17/02:07pm -3.7 -26.7 -5.7 86 - ENE 107 126 58 68 965.1 - -
17/02:00pm -3.7 -26.5 -5.8 85 - ENE 106 122 57 66 965.3 965.7 -
17/01:33pm -3.7 -26.5 -5.7 86 - ENE 106 124 57 67 964.9 - -
17/01:30pm -3.5 -26.3 -5.6 85 - ENE 106 124 57 67 965.2 - -
17/01:26pm -3.6 -26.4 -5.6 86 - ENE 106 124 57 67 965.2 - -
17/01:25pm -3.6 -26.4 -5.6 86 - ENE 106 124 57 67 965.2 - -
17/01:00pm -3.7 -27.1 -6.2 83 - ENE 109 124 59 67 965.1 - -
17/12:42pm -3.9 -26.4 -5.9 86 - ENE 104 124 56 67 964.9 - -
17/12:41pm -3.9 -26.4 -5.9 86 - ENE 104 124 56 67 964.9 - -
17/12:30pm -3.9 -26.8 -6.2 84 - ENE 106 120 57 65 965.1 - -
17/12:05pm -4.2 -28.0 -6.0 87 - ENE 111 130 60 70 964.4 - -
17/12:04pm -4.2 -28.0 -6.0 87 - ENE 111 130 60 70 964.4 - -
17/12:00pm -4.2 -28.0 -5.9 88 - ENE 111 126 60 68 964.4 - -
17/11:36am -4.5 -28.7 -6.3 87 - ENE 113 132 61 71 964.6 - -
17/11:35am -4.5 -28.7 -6.3 87 - ENE 113 132 61 71 964.6 - -
17/11:30am -4.3 -28.5 -6.3 86 - ENE 113 130 61 70 964.3 - -
17/11:10am -4.6 -29.2 -6.3 88 - ENE 115 133 62 72 964.2 - -
17/11:00am -4.4 -29.0 -6.1 88 - ENE 115 128 62 69 964.0 964.4 -
17/10:32am -4.7 -28.9 -6.4 88 - ENE 113 132 61 71 963.8 - -
17/10:31am -4.7 -28.9 -6.4 88 - ENE 113 132 61 71 963.8 - -
17/10:30am -4.6 -28.8 -6.3 88 - ENE 113 130 61 70 963.9 - -
17/10:00am -4.7 -29.3 -6.4 88 - ENE 115 135 62 73 963.7 - -
17/09:31am -5.1 -29.7 -6.5 90 - ENE 115 133 62 72 963.4 - -
17/09:30am -5.1 -29.7 -6.6 89 - ENE 115 132 62 71 963.6 - -
17/09:05am -4.9 -29.1 -6.4 89 - ENE 113 133 61 72 963.8 - -
17/09:04am -4.9 -29.1 -6.4 89 - ENE 113 133 61 72 963.8 - -
17/09:00am -4.9 -29.1 -6.4 89 - ENE 113 130 61 70 963.8 - -
17/08:30am -5.0 -30.0 -6.2 91 - ENE 117 137 63 74 963.5 - -
17/08:28am -4.8 -29.4 -6.0 91 - ENE 115 133 62 72 963.7 - -
17/08:27am -4.8 -29.4 -6.0 91 - ENE 115 133 62 72 963.7 - -
17/08:00am -4.7 -28.9 -6.1 90 - ENE 113 128 61 69 963.9 964.3 -
17/07:56am -4.6 -28.8 -6.0 90 - ENE 113 132 61 71 963.9 - -
17/07:55am -4.7 -28.9 -5.9 91 - ENE 113 132 61 71 963.9 - -
17/07:30am -5.0 -30.0 -6.2 91 - ENE 117 132 63 71 963.7 - -
17/07:00am -5.2 -30.2 -6.3 92 - ENE 117 139 63 75 964.1 - -
17/06:30am -5.3 -30.3 -6.5 91 - ENE 117 137 63 74 964.0 - -
17/06:00am -5.2 -30.5 -6.3 92 - ENE 119 137 64 74 963.4 - -
17/05:30am -4.9 -31.2 -6.0 92 - ENE 124 143 67 77 963.1 - -
17/05:00am -4.9 -31.2 -6.0 92 - ENE 124 145 67 78 963.1 963.5 -
17/04:33am -4.7 -30.2 -5.8 92 - ENE 120 139 65 75 963.4 - -
17/04:32am -4.7 -30.2 -5.8 92 - ENE 120 139 65 75 963.4 - -
17/04:30am -4.6 -30.1 -5.7 92 - ENE 120 137 65 74 963.4 - -
17/04:01am -5.1 -30.6 -6.2 92 - ENE 120 139 65 75 963.7 - -
17/04:00am -5.1 -30.6 -6.2 92 - ENE 120 139 65 75 963.7 - -
17/03:30am -5.0 -30.5 -6.1 92 - ENE 120 143 65 77 964.2 - -
17/03:00am -5.0 -30.5 -6.1 92 - ENE 120 141 65 76 964.1 - -
17/02:30am -5.0 -30.5 -6.1 92 - ENE 120 141 65 76 964.8 - -
17/02:11am -5.0 -30.3 -6.1 92 - ENE 119 137 64 74 965.2 - -
17/02:10am -5.0 -30.3 -6.1 92 - ENE 119 137 64 74 965.2 - -
17/02:00am -5.1 -30.4 -6.2 92 - E 119 133 64 72 965.5 965.9 -
17/01:30am -5.0 -29.6 -6.1 92 - E 115 135 62 73 966.4 - -
17/01:00am -5.4 -28.9 -6.5 92 - E 109 128 59 69 967.6 - -
17/12:54am -5.4 -28.5 -6.5 92 - E 107 128 58 69 968.0 - -
17/12:53am -5.4 -28.5 -6.5 92 - E 107 128 58 69 968.0 - -
17/12:30am -5.8 -28.9 -6.9 92 - E 107 122 58 66 968.4 - -
17/12:00am -5.9 -28.5 -7.1 91 - E 104 119 56 64 969.6 - -
 
Date/Time
EDT
Temp
°C
App
Temp
°C
Dew
Point
°C
Rel
Hum
%
Delta-T
°C
Wind Press
QNH
hPa
Press
MSL
hPa
Rain since
9am
mm
Dir  Spd
km/h
Gust
km/h
Spd
kts
Gust
kts
16/11:30pm -6.0 -26.5 -7.2 91 - E 93 109 50 59 970.8 - -
16/11:27pm -5.9 -25.6 -7.1 91 - E 89 109 48 59 970.9 - -
16/11:26pm -5.9 -25.6 -7.1 91 - E 89 109 48 59 970.9 - -
16/11:00pm -6.0 -24.6 -7.2 91 - E 83 96 45 52 972.7 973.1 -
16/10:30pm -6.0 -25.0 -7.2 91 - E 85 98 46 53 972.8 - -
16/10:00pm -6.1 -23.4 -7.5 90 - E 76 85 41 46 973.8 - -
16/09:30pm -6.1 -24.2 -7.5 90 - E 80 93 43 50 974.1 - -
16/09:10pm -6.2 -23.2 -8.0 87 - E 74 80 40 43 974.4 - -
16/09:00pm -6.1 -19.7 -8.7 82 - E 56 69 30 37 975.5 - -
16/08:30pm -6.4 -22.1 -8.5 85 - E 67 78 36 42 975.6 - -
16/08:00pm -6.4 -22.6 -8.3 86 - E 70 78 38 42 975.5 975.9 -
16/07:30pm -6.1 -20.7 -8.8 81 - E 61 69 33 37 976.3 - -
16/07:12pm -6.4 -18.3 -11.3 68 - ENE 46 57 25 31 977.4 - -
16/07:11pm -6.4 -17.9 -11.3 68 - ENE 44 57 24 31 977.4 - -
16/07:00pm -7.3 -12.2 -12.4 67 - E 9 20 5 11 977.8 - -
16/06:30pm -9.6 -14.9 -12.7 78 - S 11 13 6 7 978.3 - -
16/06:00pm -9.6 -14.0 -13.2 75 - E 6 11 3 6 978.7 - -
16/05:30pm -9.5 -14.1 -13.2 74 - SSW 7 11 4 6 979.1 - -
16/05:00pm -8.8 -12.8 -12.9 72 - SW 4 9 2 5 979.5 980.0 -
16/04:30pm -9.1 -12.4 -13.9 68 - CALM 0 0 0 0 979.7 - -
16/04:00pm -9.6 -12.9 -13.9 71 - CALM 0 0 0 0 980.1 - -
16/03:30pm -10.2 -14.8 -13.3 78 - S 7 11 4 6 980.4 - -
16/03:00pm -10.7 -15.3 -13.5 80 - S 7 11 4 6 980.6 - -
16/02:30pm -11.1 -16.1 -13.9 80 - S 9 11 5 6 980.8 - -
16/02:00pm -10.6 -14.3 -14.6 72 - S 2 7 1 4 980.9 981.4 -
16/01:30pm -11.5 -16.5 -13.9 82 - S 9 11 5 6 981.0 - -
16/01:00pm -10.7 -17.6 -13.3 81 - S 19 20 10 11 980.9 - -
16/12:30pm -10.7 -17.6 -13.3 81 - S 19 22 10 12 981.2 - -
16/12:00pm -11.1 -18.0 -13.4 83 - S 19 20 10 11 981.3 - -
16/11:30am -11.8 -18.9 -13.8 85 - S 20 22 11 12 981.5 - -
16/11:00am -11.8 -18.9 -13.8 85 - SSW 20 24 11 13 981.5 982.0 -
16/10:30am -12.4 -18.2 -14.2 86 - SW 13 15 7 8 981.7 - -
16/10:00am -12.6 -17.6 -14.4 86 - W 9 11 5 6 981.7 - -
16/09:30am -12.6 -15.9 -14.6 85 - CALM 0 0 0 0 981.8 - -
16/09:00am -12.8 -16.5 -14.6 86 - WNW 2 6 1 3 981.8 - -
16/08:30am -13.1 -17.8 -14.8 87 - WNW 7 7 4 4 981.8 - -
16/08:00am -12.9 -17.4 -14.6 87 - WNW 6 7 3 4 981.8 982.3 -
16/07:30am -12.6 -17.3 -14.3 87 - WNW 7 9 4 5 981.8 - -
16/07:00am -12.6 -17.3 -14.3 87 - WNW 7 9 4 5 981.6 - -
16/06:30am -12.6 -17.6 -14.3 87 - N 9 11 5 6 981.4 - -
16/06:00am -12.7 -17.2 -14.4 87 - NNE 6 7 3 4 981.3 - -
16/05:30am -12.5 -15.8 -14.5 85 - CALM 0 0 0 0 981.2 - -
16/05:00am -12.4 -15.7 -14.4 85 - CALM 0 0 0 0 981.2 981.7 -
16/04:30am -12.3 -16.8 -14.3 85 - NNE 6 6 3 3 981.1 - -
16/04:00am -12.4 -17.1 -14.2 86 - NNE 7 7 4 4 981.1 - -
16/03:30am -12.6 -17.6 -14.3 87 - NNE 9 11 5 6 980.9 - -
16/03:00am -12.6 -18.4 -14.3 87 - NNE 13 13 7 7 980.9 - -
16/02:30am -12.4 -18.2 -14.2 86 - NNE 13 15 7 8 980.7 - -
16/02:00am -12.4 -18.6 -14.5 84 - NNE 15 17 8 9 980.7 981.1 -
16/01:30am -12.4 -19.0 -14.5 84 - NNE 17 20 9 11 980.5 - -
16/01:00am -12.5 -19.5 -14.5 85 - NE 19 20 10 11 980.3 - -
16/12:30am -12.8 -19.8 -14.6 86 - NE 19 20 10 11 980.2 - -
16/12:00am -12.8 -19.8 -14.5 87 - NNE 19 24 10 13 980.1 - -
 
Date/Time
EDT
Temp
°C
App
Temp
°C
Dew
Point
°C
Rel
Hum
%
Delta-T
°C
Wind Press
QNH
hPa
Press
MSL
hPa
Rain since
9am
mm
Dir  Spd
km/h
Gust
km/h
Spd
kts
Gust
kts
15/11:30pm -12.3 -19.2 -14.0 87 - NNE 19 26 10 14 979.7 - -
15/11:00pm -11.9 -18.4 -13.6 87 - NNE 17 20 9 11 979.5 980.0 -
15/10:30pm -11.9 -17.7 -13.8 86 - NNE 13 15 7 8 979.2 - -
15/10:00pm -11.5 -16.9 -13.5 85 - NE 11 13 6 7 979.0 - -
15/09:30pm -11.4 -17.2 -13.6 84 - NE 13 15 7 8 978.9 - -
15/09:00pm -11.4 -16.4 -13.6 84 - NE 9 13 5 7 978.8 - -
15/08:30pm -11.2 -16.2 -13.6 82 - E 9 11 5 6 978.5 - -
15/08:00pm -11.3 -16.3 -13.9 81 - ESE 9 11 5 6 978.4 978.9 -
15/07:30pm -11.3 -16.0 -14.2 79 - SE 7 9 4 5 978.2 - -
15/07:00pm -11.2 -15.3 -14.6 76 - S 4 7 2 4 978.1 - -
15/06:30pm -11.4 -15.2 -15.3 73 - S 2 6 1 3 978.1 - -
15/06:00pm -12.2 -17.3 -14.9 80 - S 9 11 5 6 978.1 - -
15/05:30pm -11.9 -17.4 -14.9 78 - S 11 11 6 6 977.8 - -
15/05:00pm -12.5 -18.4 -15.7 77 - S 13 15 7 8 977.8 978.3 -
15/04:30pm -12.2 -18.1 -15.4 77 - SSE 13 17 7 9 977.8 - -
15/04:00pm -12.7 -19.7 -15.6 79 - S 19 20 10 11 977.8 - -
15/03:30pm -13.0 -20.0 -15.9 79 - S 19 20 10 11 977.7 - -
15/03:00pm -13.0 -20.1 -16.5 75 - S 19 20 10 11 977.7 - -
15/02:30pm -13.3 -20.4 -17.3 72 - SSE 19 20 10 11 977.8 - -
15/02:00pm -13.0 -20.1 -17.3 70 - SSE 19 20 10 11 977.8 978.3 -
15/01:30pm -13.5 -20.6 -18.6 65 - SSE 19 20 10 11 977.8 - -
15/01:00pm -14.3 -21.7 -19.4 65 - SSE 20 22 11 12 977.9 - -
15/12:30pm -14.5 -22.6 -20.0 63 - SSE 24 28 13 15 977.9 - -
15/12:00pm -14.7 -23.2 -19.3 68 - SSE 26 28 14 15 977.9 - -
15/11:30am -14.8 -23.3 -19.5 67 - SSE 26 30 14 16 978.1 - -
15/11:00am -15.1 -24.4 -20.2 65 - SSE 30 33 16 18 978.0 978.5 -
15/10:30am -15.2 -24.1 -21.2 60 - SSE 28 33 15 18 978.0 - -
15/10:00am -16.5 -25.1 -22.0 62 - SSE 26 28 14 15 978.2 - -
15/09:30am -17.2 -25.8 -23.1 60 - SSE 26 28 14 15 978.1 - -
15/09:00am -17.2 -25.1 -22.9 61 - SSE 22 26 12 14 978.3 - -
15/08:30am -17.5 -24.8 -23.0 62 - SSE 19 22 10 12 978.6 - -
15/08:00am -18.7 -25.6 -22.9 69 - SSE 17 20 9 11 978.8 979.3 -
15/07:30am -17.7 -25.0 -22.5 66 - SSE 19 22 10 12 978.7 - -
15/07:00am -18.5 -26.0 -23.2 66 - SE 20 22 11 12 978.9 - -
15/06:30am -17.1 -24.6 -22.1 65 - SE 20 24 11 13 978.9 - -
15/06:00am -16.5 -23.0 -22.0 62 - SSE 15 20 8 11 979.1 - -
15/05:30am -15.8 -23.2 -20.5 67 - N 20 26 11 14 979.1 - -

Other Formats:

Comma delimited format used in spreadsheet applications
http://www.bom.gov.au/fwo/IDT60803/IDT60803.89611.axf

JavaScript Object Notation format (JSON) in row-major order
http://www.bom.gov.au/fwo/IDT60803/IDT60803.89611.json